sensor_id;sensor_type;location;lat;lon;timestamp;P1;durP1;ratioP1;P2;durP2;ratioP2
2299;SDS011;1158;48.750;9.078;2022-10-04T00:00:55;15.10;;;7.60;;
2299;SDS011;1158;48.750;9.078;2022-10-04T00:03:36;15.13;;;7.50;;
2299;SDS011;1158;48.750;9.078;2022-10-04T00:06:11;12.80;;;7.07;;
2299;SDS011;1158;48.750;9.078;2022-10-04T00:08:41;12.53;;;7.80;;
2299;SDS011;1158;48.750;9.078;2022-10-04T00:11:15;15.27;;;8.33;;
2299;SDS011;1158;48.750;9.078;2022-10-04T00:13:48;18.00;;;9.00;;
2299;SDS011;1158;48.750;9.078;2022-10-04T00:16:20;18.83;;;8.53;;
2299;SDS011;1158;48.750;9.078;2022-10-04T00:19:00;14.13;;;8.10;;
2299;SDS011;1158;48.750;9.078;2022-10-04T00:31:11;14.63;;;8.53;;
2299;SDS011;1158;48.750;9.078;2022-10-04T00:33:43;21.80;;;9.70;;
2299;SDS011;1158;48.750;9.078;2022-10-04T00:42:17;16.77;;;7.80;;
2299;SDS011;1158;48.750;9.078;2022-10-04T00:45:03;17.33;;;7.80;;
2299;SDS011;1158;48.750;9.078;2022-10-04T00:47:40;17.00;;;8.37;;
2299;SDS011;1158;48.750;9.078;2022-10-04T00:50:25;23.23;;;7.97;;
2299;SDS011;1158;48.750;9.078;2022-10-04T00:52:56;16.57;;;7.67;;
2299;SDS011;1158;48.750;9.078;2022-10-04T00:55:26;15.23;;;8.20;;
2299;SDS011;1158;48.750;9.078;2022-10-04T00:57:59;13.70;;;6.97;;
2299;SDS011;1158;48.750;9.078;2022-10-04T01:00:30;17.03;;;8.30;;
2299;SDS011;1158;48.750;9.078;2022-10-04T01:02:58;14.53;;;7.20;;
2299;SDS011;1158;48.750;9.078;2022-10-04T01:05:29;17.23;;;8.10;;
2299;SDS011;1158;48.750;9.078;2022-10-04T01:08:04;18.73;;;7.77;;
2299;SDS011;1158;48.750;9.078;2022-10-04T01:10:35;13.30;;;8.10;;
2299;SDS011;1158;48.750;9.078;2022-10-04T01:13:08;12.53;;;7.73;;
2299;SDS011;1158;48.750;9.078;2022-10-04T01:15:40;15.00;;;8.90;;
2299;SDS011;1158;48.750;9.078;2022-10-04T01:18:12;13.13;;;6.90;;
2299;SDS011;1158;48.750;9.078;2022-10-04T01:20:48;16.70;;;8.47;;
2299;SDS011;1158;48.750;9.078;2022-10-04T01:23:39;17.80;;;8.70;;
2299;SDS011;1158;48.750;9.078;2022-10-04T01:29:01;16.43;;;8.23;;
2299;SDS011;1158;48.750;9.078;2022-10-04T01:31:32;13.63;;;8.30;;
2299;SDS011;1158;48.750;9.078;2022-10-04T01:34:02;11.30;;;7.43;;
2299;SDS011;1158;48.750;9.078;2022-10-04T01:36:30;14.27;;;7.10;;
2299;SDS011;1158;48.750;9.078;2022-10-04T01:38:59;18.53;;;9.27;;
2299;SDS011;1158;48.750;9.078;2022-10-04T01:41:27;15.70;;;7.83;;
2299;SDS011;1158;48.750;9.078;2022-10-04T01:43:58;16.30;;;8.27;;
2299;SDS011;1158;48.750;9.078;2022-10-04T01:46:30;17.03;;;8.80;;
2299;SDS011;1158;48.750;9.078;2022-10-04T01:49:02;14.03;;;8.53;;
2299;SDS011;1158;48.750;9.078;2022-10-04T01:51:31;15.90;;;7.37;;
2299;SDS011;1158;48.750;9.078;2022-10-04T01:54:04;12.10;;;6.83;;
2299;SDS011;1158;48.750;9.078;2022-10-04T01:56:37;15.93;;;7.70;;
2299;SDS011;1158;48.750;9.078;2022-10-04T01:59:12;10.87;;;7.27;;
2299;SDS011;1158;48.750;9.078;2022-10-04T02:01:42;12.30;;;7.70;;
2299;SDS011;1158;48.750;9.078;2022-10-04T02:04:14;14.83;;;9.07;;
2299;SDS011;1158;48.750;9.078;2022-10-04T02:06:43;16.90;;;7.10;;
2299;SDS011;1158;48.750;9.078;2022-10-04T02:09:17;17.10;;;8.07;;
2299;SDS011;1158;48.750;9.078;2022-10-04T02:11:47;13.53;;;8.27;;
2299;SDS011;1158;48.750;9.078;2022-10-04T02:14:18;11.63;;;7.50;;
2299;SDS011;1158;48.750;9.078;2022-10-04T02:16:47;13.30;;;7.80;;
2299;SDS011;1158;48.750;9.078;2022-10-04T02:19:18;18.03;;;7.97;;
2299;SDS011;1158;48.750;9.078;2022-10-04T02:21:45;14.23;;;8.33;;
2299;SDS011;1158;48.750;9.078;2022-10-04T02:24:15;11.63;;;7.90;;
2299;SDS011;1158;48.750;9.078;2022-10-04T02:26:47;13.67;;;7.60;;
2299;SDS011;1158;48.750;9.078;2022-10-04T02:29:15;14.17;;;7.20;;
2299;SDS011;1158;48.750;9.078;2022-10-04T02:31:42;13.33;;;7.90;;
2299;SDS011;1158;48.750;9.078;2022-10-04T02:34:27;17.17;;;8.47;;
2299;SDS011;1158;48.750;9.078;2022-10-04T02:36:55;14.63;;;7.90;;
2299;SDS011;1158;48.750;9.078;2022-10-04T02:39:25;13.93;;;8.40;;
2299;SDS011;1158;48.750;9.078;2022-10-04T02:41:55;11.53;;;6.73;;
2299;SDS011;1158;48.750;9.078;2022-10-04T02:44:26;18.23;;;8.00;;
2299;SDS011;1158;48.750;9.078;2022-10-04T02:46:58;15.93;;;9.03;;
2299;SDS011;1158;48.750;9.078;2022-10-04T02:49:33;12.50;;;7.80;;
2299;SDS011;1158;48.750;9.078;2022-10-04T02:52:04;15.47;;;8.17;;
2299;SDS011;1158;48.750;9.078;2022-10-04T02:54:36;12.53;;;8.10;;
2299;SDS011;1158;48.750;9.078;2022-10-04T02:57:11;13.20;;;8.03;;
2299;SDS011;1158;48.750;9.078;2022-10-04T02:59:41;16.20;;;7.03;;
2299;SDS011;1158;48.750;9.078;2022-10-04T03:02:18;11.53;;;7.90;;
2299;SDS011;1158;48.750;9.078;2022-10-04T03:04:47;18.20;;;8.90;;
2299;SDS011;1158;48.750;9.078;2022-10-04T03:07:15;15.23;;;7.90;;
2299;SDS011;1158;48.750;9.078;2022-10-04T03:09:43;15.47;;;8.30;;
2299;SDS011;1158;48.750;9.078;2022-10-04T03:12:11;13.13;;;8.50;;
2299;SDS011;1158;48.750;9.078;2022-10-04T03:14:39;17.33;;;7.80;;
2299;SDS011;1158;48.750;9.078;2022-10-04T03:17:05;12.93;;;8.73;;
2299;SDS011;1158;48.750;9.078;2022-10-04T03:19:33;15.50;;;7.97;;
2299;SDS011;1158;48.750;9.078;2022-10-04T03:22:01;14.00;;;8.87;;
2299;SDS011;1158;48.750;9.078;2022-10-04T03:24:32;21.67;;;9.27;;
2299;SDS011;1158;48.750;9.078;2022-10-04T03:27:03;15.77;;;7.80;;
2299;SDS011;1158;48.750;9.078;2022-10-04T03:29:32;14.50;;;7.90;;
2299;SDS011;1158;48.750;9.078;2022-10-04T03:32:02;11.67;;;8.23;;
2299;SDS011;1158;48.750;9.078;2022-10-04T03:34:31;19.63;;;8.93;;
2299;SDS011;1158;48.750;9.078;2022-10-04T03:37:01;13.20;;;8.10;;
2299;SDS011;1158;48.750;9.078;2022-10-04T03:39:33;13.43;;;7.97;;
2299;SDS011;1158;48.750;9.078;2022-10-04T03:42:06;15.90;;;8.50;;
2299;SDS011;1158;48.750;9.078;2022-10-04T03:44:37;18.53;;;8.00;;
2299;SDS011;1158;48.750;9.078;2022-10-04T03:47:06;16.40;;;9.50;;
2299;SDS011;1158;48.750;9.078;2022-10-04T03:49:35;18.00;;;9.43;;
2299;SDS011;1158;48.750;9.078;2022-10-04T03:52:03;14.87;;;8.27;;
2299;SDS011;1158;48.750;9.078;2022-10-04T03:54:30;18.40;;;9.50;;
2299;SDS011;1158;48.750;9.078;2022-10-04T03:56:58;13.90;;;7.83;;
2299;SDS011;1158;48.750;9.078;2022-10-04T03:59:28;13.27;;;7.90;;
2299;SDS011;1158;48.750;9.078;2022-10-04T04:02:00;16.33;;;8.50;;
2299;SDS011;1158;48.750;9.078;2022-10-04T04:04:34;20.70;;;7.63;;
2299;SDS011;1158;48.750;9.078;2022-10-04T04:07:10;11.90;;;8.10;;
2299;SDS011;1158;48.750;9.078;2022-10-04T04:09:41;14.40;;;8.10;;
2299;SDS011;1158;48.750;9.078;2022-10-04T04:12:12;19.70;;;8.20;;
2299;SDS011;1158;48.750;9.078;2022-10-04T04:14:45;16.40;;;8.03;;
2299;SDS011;1158;48.750;9.078;2022-10-04T04:17:16;13.93;;;8.33;;
2299;SDS011;1158;48.750;9.078;2022-10-04T04:19:56;15.10;;;8.63;;
2299;SDS011;1158;48.750;9.078;2022-10-04T04:22:26;12.43;;;8.00;;
2299;SDS011;1158;48.750;9.078;2022-10-04T04:24:56;15.47;;;8.73;;
2299;SDS011;1158;48.750;9.078;2022-10-04T04:27:25;12.77;;;8.40;;
2299;SDS011;1158;48.750;9.078;2022-10-04T04:29:56;11.57;;;7.23;;
2299;SDS011;1158;48.750;9.078;2022-10-04T04:32:29;13.73;;;8.10;;
2299;SDS011;1158;48.750;9.078;2022-10-04T04:34:58;12.20;;;8.60;;
2299;SDS011;1158;48.750;9.078;2022-10-04T04:37:31;13.70;;;7.70;;
2299;SDS011;1158;48.750;9.078;2022-10-04T04:40:00;15.90;;;8.53;;
2299;SDS011;1158;48.750;9.078;2022-10-04T04:42:43;15.33;;;7.27;;
2299;SDS011;1158;48.750;9.078;2022-10-04T04:45:13;13.83;;;7.60;;
2299;SDS011;1158;48.750;9.078;2022-10-04T04:47:43;12.13;;;7.43;;
2299;SDS011;1158;48.750;9.078;2022-10-04T04:50:13;14.10;;;8.60;;
2299;SDS011;1158;48.750;9.078;2022-10-04T04:52:42;15.93;;;8.70;;
2299;SDS011;1158;48.750;9.078;2022-10-04T04:55:15;15.23;;;8.67;;
2299;SDS011;1158;48.750;9.078;2022-10-04T04:57:43;17.20;;;8.83;;
2299;SDS011;1158;48.750;9.078;2022-10-04T05:00:16;15.40;;;8.97;;
2299;SDS011;1158;48.750;9.078;2022-10-04T05:02:49;15.17;;;9.23;;
2299;SDS011;1158;48.750;9.078;2022-10-04T05:05:19;15.10;;;9.60;;
2299;SDS011;1158;48.750;9.078;2022-10-04T05:07:48;19.13;;;9.80;;
2299;SDS011;1158;48.750;9.078;2022-10-04T05:10:28;17.47;;;8.40;;
2299;SDS011;1158;48.750;9.078;2022-10-04T05:12:56;16.23;;;8.90;;
2299;SDS011;1158;48.750;9.078;2022-10-04T05:15:26;15.57;;;8.23;;
2299;SDS011;1158;48.750;9.078;2022-10-04T05:17:57;13.27;;;8.03;;
2299;SDS011;1158;48.750;9.078;2022-10-04T05:20:24;13.33;;;7.57;;
2299;SDS011;1158;48.750;9.078;2022-10-04T05:22:52;15.43;;;8.80;;
2299;SDS011;1158;48.750;9.078;2022-10-04T05:25:22;16.63;;;9.50;;
2299;SDS011;1158;48.750;9.078;2022-10-04T05:27:53;13.73;;;8.13;;
2299;SDS011;1158;48.750;9.078;2022-10-04T05:30:30;14.37;;;9.20;;
2299;SDS011;1158;48.750;9.078;2022-10-04T05:33:05;13.83;;;8.07;;
2299;SDS011;1158;48.750;9.078;2022-10-04T05:35:40;15.90;;;10.70;;
2299;SDS011;1158;48.750;9.078;2022-10-04T05:38:13;16.40;;;9.60;;
2299;SDS011;1158;48.750;9.078;2022-10-04T05:40:49;17.70;;;9.97;;
2299;SDS011;1158;48.750;9.078;2022-10-04T05:43:22;13.17;;;8.53;;
2299;SDS011;1158;48.750;9.078;2022-10-04T05:46:16;15.40;;;9.33;;
2299;SDS011;1158;48.750;9.078;2022-10-04T05:48:48;15.27;;;9.43;;
2299;SDS011;1158;48.750;9.078;2022-10-04T05:51:19;15.10;;;8.80;;
2299;SDS011;1158;48.750;9.078;2022-10-04T05:53:47;16.27;;;9.10;;
2299;SDS011;1158;48.750;9.078;2022-10-04T05:56:18;15.90;;;8.00;;
2299;SDS011;1158;48.750;9.078;2022-10-04T05:59:06;16.03;;;9.30;;
2299;SDS011;1158;48.750;9.078;2022-10-04T06:01:47;14.83;;;9.43;;
2299;SDS011;1158;48.750;9.078;2022-10-04T06:04:31;18.40;;;9.47;;
2299;SDS011;1158;48.750;9.078;2022-10-04T06:07:12;17.30;;;8.80;;
2299;SDS011;1158;48.750;9.078;2022-10-04T06:09:50;11.93;;;8.50;;
2299;SDS011;1158;48.750;9.078;2022-10-04T06:12:30;15.23;;;8.70;;
2299;SDS011;1158;48.750;9.078;2022-10-04T06:18:18;16.77;;;8.60;;
2299;SDS011;1158;48.750;9.078;2022-10-04T06:23:50;12.60;;;8.40;;
2299;SDS011;1158;48.750;9.078;2022-10-04T06:26:24;11.90;;;8.03;;
2299;SDS011;1158;48.750;9.078;2022-10-04T06:28:56;10.90;;;7.97;;
2299;SDS011;1158;48.750;9.078;2022-10-04T06:31:37;14.80;;;8.07;;
2299;SDS011;1158;48.750;9.078;2022-10-04T06:34:28;12.97;;;8.70;;
2299;SDS011;1158;48.750;9.078;2022-10-04T06:40:29;17.30;;;9.10;;
2299;SDS011;1158;48.750;9.078;2022-10-04T06:43:11;13.90;;;8.63;;
2299;SDS011;1158;48.750;9.078;2022-10-04T06:45:59;13.90;;;9.37;;
2299;SDS011;1158;48.750;9.078;2022-10-04T06:51:38;21.47;;;10.10;;
2299;SDS011;1158;48.750;9.078;2022-10-04T06:54:23;13.97;;;9.33;;
2299;SDS011;1158;48.750;9.078;2022-10-04T07:00:12;17.83;;;9.10;;
2299;SDS011;1158;48.750;9.078;2022-10-04T07:02:43;16.33;;;9.00;;
2299;SDS011;1158;48.750;9.078;2022-10-04T07:05:16;18.83;;;8.57;;
2299;SDS011;1158;48.750;9.078;2022-10-04T07:07:56;13.63;;;8.97;;
2299;SDS011;1158;48.750;9.078;2022-10-04T07:10:33;13.87;;;9.77;;
2299;SDS011;1158;48.750;9.078;2022-10-04T07:13:15;18.23;;;9.23;;
2299;SDS011;1158;48.750;9.078;2022-10-04T07:15:54;14.20;;;9.23;;
2299;SDS011;1158;48.750;9.078;2022-10-04T07:18:26;16.80;;;8.23;;
2299;SDS011;1158;48.750;9.078;2022-10-04T07:20:57;15.27;;;8.63;;
2299;SDS011;1158;48.750;9.078;2022-10-04T07:23:30;17.50;;;10.77;;
2299;SDS011;1158;48.750;9.078;2022-10-04T07:26:01;17.33;;;11.50;;
2299;SDS011;1158;48.750;9.078;2022-10-04T07:28:31;17.20;;;10.93;;
2299;SDS011;1158;48.750;9.078;2022-10-04T07:31:22;18.20;;;10.37;;
2299;SDS011;1158;48.750;9.078;2022-10-04T07:33:53;17.60;;;8.70;;
2299;SDS011;1158;48.750;9.078;2022-10-04T07:36:23;13.43;;;9.80;;
2299;SDS011;1158;48.750;9.078;2022-10-04T07:38:56;12.00;;;9.00;;
2299;SDS011;1158;48.750;9.078;2022-10-04T07:41:30;14.43;;;8.13;;
2299;SDS011;1158;48.750;9.078;2022-10-04T07:44:00;10.90;;;7.87;;
2299;SDS011;1158;48.750;9.078;2022-10-04T07:46:37;16.73;;;8.60;;
2299;SDS011;1158;48.750;9.078;2022-10-04T07:49:11;10.63;;;8.10;;
2299;SDS011;1158;48.750;9.078;2022-10-04T07:51:41;14.60;;;8.37;;
2299;SDS011;1158;48.750;9.078;2022-10-04T07:54:29;15.93;;;8.87;;
2299;SDS011;1158;48.750;9.078;2022-10-04T07:57:06;17.43;;;9.70;;
2299;SDS011;1158;48.750;9.078;2022-10-04T07:59:41;19.57;;;9.17;;
2299;SDS011;1158;48.750;9.078;2022-10-04T08:02:19;12.80;;;8.40;;
2299;SDS011;1158;48.750;9.078;2022-10-04T08:04:54;14.80;;;10.50;;
2299;SDS011;1158;48.750;9.078;2022-10-04T08:07:35;11.37;;;8.27;;
2299;SDS011;1158;48.750;9.078;2022-10-04T08:10:14;16.90;;;9.03;;
2299;SDS011;1158;48.750;9.078;2022-10-04T08:12:51;22.50;;;10.10;;
2299;SDS011;1158;48.750;9.078;2022-10-04T08:15:28;24.90;;;8.73;;
2299;SDS011;1158;48.750;9.078;2022-10-04T08:18:03;10.83;;;7.40;;
2299;SDS011;1158;48.750;9.078;2022-10-04T08:20:43;10.73;;;6.70;;
2299;SDS011;1158;48.750;9.078;2022-10-04T08:26:28;8.60;;;5.97;;
2299;SDS011;1158;48.750;9.078;2022-10-04T08:29:12;9.37;;;6.13;;
2299;SDS011;1158;48.750;9.078;2022-10-04T08:32:11;9.23;;;6.10;;
2299;SDS011;1158;48.750;9.078;2022-10-04T08:34:58;9.70;;;5.30;;
2299;SDS011;1158;48.750;9.078;2022-10-04T08:37:44;10.43;;;5.00;;
2299;SDS011;1158;48.750;9.078;2022-10-04T08:40:27;10.60;;;5.47;;
2299;SDS011;1158;48.750;9.078;2022-10-04T08:43:21;9.63;;;4.70;;
2299;SDS011;1158;48.750;9.078;2022-10-04T08:46:36;10.43;;;4.43;;
2299;SDS011;1158;48.750;9.078;2022-10-04T08:49:36;6.47;;;4.63;;
2299;SDS011;1158;48.750;9.078;2022-10-04T08:52:28;6.00;;;4.67;;
2299;SDS011;1158;48.750;9.078;2022-10-04T08:58:14;6.63;;;4.27;;
2299;SDS011;1158;48.750;9.078;2022-10-04T09:01:07;4.83;;;3.97;;
2299;SDS011;1158;48.750;9.078;2022-10-04T09:04:06;9.53;;;4.17;;
2299;SDS011;1158;48.750;9.078;2022-10-04T09:06:56;5.03;;;3.30;;
2299;SDS011;1158;48.750;9.078;2022-10-04T09:09:53;8.10;;;3.60;;
2299;SDS011;1158;48.750;9.078;2022-10-04T09:12:46;7.83;;;3.50;;
2299;SDS011;1158;48.750;9.078;2022-10-04T09:15:22;7.33;;;3.70;;
2299;SDS011;1158;48.750;9.078;2022-10-04T09:18:06;6.00;;;3.90;;
2299;SDS011;1158;48.750;9.078;2022-10-04T09:20:49;7.13;;;3.57;;
2299;SDS011;1158;48.750;9.078;2022-10-04T09:26:29;4.30;;;3.20;;
2299;SDS011;1158;48.750;9.078;2022-10-04T09:29:13;8.37;;;4.13;;
2299;SDS011;1158;48.750;9.078;2022-10-04T09:31:57;6.63;;;3.03;;
2299;SDS011;1158;48.750;9.078;2022-10-04T09:38:07;5.30;;;3.20;;
2299;SDS011;1158;48.750;9.078;2022-10-04T09:47:27;7.40;;;3.60;;
2299;SDS011;1158;48.750;9.078;2022-10-04T09:52:58;8.23;;;3.30;;
2299;SDS011;1158;48.750;9.078;2022-10-04T09:55:57;6.50;;;3.40;;
2299;SDS011;1158;48.750;9.078;2022-10-04T09:58:48;5.23;;;3.57;;
2299;SDS011;1158;48.750;9.078;2022-10-04T10:01:34;5.00;;;3.00;;
2299;SDS011;1158;48.750;9.078;2022-10-04T10:07:08;4.00;;;3.40;;
2299;SDS011;1158;48.750;9.078;2022-10-04T10:09:52;6.77;;;3.10;;
2299;SDS011;1158;48.750;9.078;2022-10-04T10:12:58;4.77;;;2.93;;
2299;SDS011;1158;48.750;9.078;2022-10-04T10:15:55;7.33;;;3.40;;
2299;SDS011;1158;48.750;9.078;2022-10-04T10:18:33;6.63;;;3.40;;
2299;SDS011;1158;48.750;9.078;2022-10-04T10:21:20;5.50;;;3.50;;
2299;SDS011;1158;48.750;9.078;2022-10-04T10:24:00;6.00;;;3.63;;
2299;SDS011;1158;48.750;9.078;2022-10-04T10:26:53;4.80;;;3.50;;
2299;SDS011;1158;48.750;9.078;2022-10-04T10:39:13;7.20;;;3.07;;
2299;SDS011;1158;48.750;9.078;2022-10-04T10:42:11;5.00;;;2.90;;
2299;SDS011;1158;48.750;9.078;2022-10-04T10:44:59;8.13;;;3.30;;
2299;SDS011;1158;48.750;9.078;2022-10-04T10:47:42;4.97;;;2.83;;
2299;SDS011;1158;48.750;9.078;2022-10-04T10:50:33;4.17;;;3.10;;
2299;SDS011;1158;48.750;9.078;2022-10-04T10:53:30;6.37;;;2.80;;
2299;SDS011;1158;48.750;9.078;2022-10-04T10:59:17;5.40;;;3.50;;
2299;SDS011;1158;48.750;9.078;2022-10-04T11:05:22;5.00;;;2.80;;
2299;SDS011;1158;48.750;9.078;2022-10-04T11:11:42;6.40;;;3.30;;
2299;SDS011;1158;48.750;9.078;2022-10-04T11:14:31;5.57;;;3.03;;
2299;SDS011;1158;48.750;9.078;2022-10-04T11:17:16;5.57;;;2.80;;
2299;SDS011;1158;48.750;9.078;2022-10-04T11:23:18;3.93;;;2.10;;
2299;SDS011;1158;48.750;9.078;2022-10-04T11:26:15;5.90;;;2.60;;
2299;SDS011;1158;48.750;9.078;2022-10-04T11:29:06;4.50;;;2.60;;
2299;SDS011;1158;48.750;9.078;2022-10-04T11:37:41;4.17;;;2.50;;
2299;SDS011;1158;48.750;9.078;2022-10-04T11:40:27;2.63;;;2.23;;
2299;SDS011;1158;48.750;9.078;2022-10-04T11:43:08;3.70;;;2.60;;
2299;SDS011;1158;48.750;9.078;2022-10-04T11:45:55;3.47;;;2.27;;
2299;SDS011;1158;48.750;9.078;2022-10-04T11:48:39;8.70;;;2.90;;
2299;SDS011;1158;48.750;9.078;2022-10-04T11:51:20;5.10;;;2.43;;
2299;SDS011;1158;48.750;9.078;2022-10-04T11:54:30;3.77;;;2.17;;
2299;SDS011;1158;48.750;9.078;2022-10-04T12:00:07;4.53;;;2.80;;
2299;SDS011;1158;48.750;9.078;2022-10-04T12:05:50;4.90;;;3.00;;
2299;SDS011;1158;48.750;9.078;2022-10-04T12:08:31;6.93;;;2.03;;
2299;SDS011;1158;48.750;9.078;2022-10-04T12:11:33;5.20;;;2.33;;
2299;SDS011;1158;48.750;9.078;2022-10-04T12:14:34;3.30;;;2.10;;
2299;SDS011;1158;48.750;9.078;2022-10-04T12:17:24;5.90;;;2.70;;
2299;SDS011;1158;48.750;9.078;2022-10-04T12:23:12;4.20;;;1.80;;
2299;SDS011;1158;48.750;9.078;2022-10-04T12:26:16;3.53;;;1.90;;
2299;SDS011;1158;48.750;9.078;2022-10-04T12:32:02;4.33;;;2.60;;
2299;SDS011;1158;48.750;9.078;2022-10-04T12:34:33;2.73;;;2.10;;
2299;SDS011;1158;48.750;9.078;2022-10-04T12:37:14;4.10;;;2.20;;
2299;SDS011;1158;48.750;9.078;2022-10-04T12:40:00;3.03;;;1.73;;
2299;SDS011;1158;48.750;9.078;2022-10-04T12:42:41;3.27;;;1.93;;
2299;SDS011;1158;48.750;9.078;2022-10-04T12:45:18;2.93;;;2.00;;
2299;SDS011;1158;48.750;9.078;2022-10-04T12:50:59;3.60;;;2.27;;
2299;SDS011;1158;48.750;9.078;2022-10-04T12:53:37;2.93;;;1.50;;
2299;SDS011;1158;48.750;9.078;2022-10-04T12:56:16;4.73;;;1.90;;
2299;SDS011;1158;48.750;9.078;2022-10-04T12:59:05;3.73;;;2.10;;
2299;SDS011;1158;48.750;9.078;2022-10-04T13:01:54;5.70;;;1.93;;
2299;SDS011;1158;48.750;9.078;2022-10-04T13:04:37;3.00;;;1.87;;
2299;SDS011;1158;48.750;9.078;2022-10-04T13:07:16;3.80;;;2.57;;
2299;SDS011;1158;48.750;9.078;2022-10-04T13:10:13;2.70;;;1.83;;
2299;SDS011;1158;48.750;9.078;2022-10-04T13:13:05;3.33;;;1.87;;
2299;SDS011;1158;48.750;9.078;2022-10-04T13:15:54;2.93;;;2.03;;
2299;SDS011;1158;48.750;9.078;2022-10-04T13:18:30;6.40;;;1.83;;
2299;SDS011;1158;48.750;9.078;2022-10-04T13:21:05;4.97;;;1.73;;
2299;SDS011;1158;48.750;9.078;2022-10-04T13:23:47;6.70;;;2.17;;
2299;SDS011;1158;48.750;9.078;2022-10-04T13:26:31;4.47;;;2.10;;
2299;SDS011;1158;48.750;9.078;2022-10-04T13:29:07;2.50;;;1.90;;
2299;SDS011;1158;48.750;9.078;2022-10-04T13:31:46;4.90;;;2.07;;
2299;SDS011;1158;48.750;9.078;2022-10-04T13:34:19;4.60;;;1.97;;
2299;SDS011;1158;48.750;9.078;2022-10-04T13:36:59;3.67;;;1.60;;
2299;SDS011;1158;48.750;9.078;2022-10-04T13:39:54;6.40;;;2.00;;
2299;SDS011;1158;48.750;9.078;2022-10-04T13:42:40;2.70;;;1.47;;
2299;SDS011;1158;48.750;9.078;2022-10-04T13:45:27;4.50;;;1.70;;
2299;SDS011;1158;48.750;9.078;2022-10-04T13:48:04;3.00;;;1.60;;
2299;SDS011;1158;48.750;9.078;2022-10-04T13:50:53;2.00;;;1.30;;
2299;SDS011;1158;48.750;9.078;2022-10-04T13:53:42;2.50;;;1.77;;
2299;SDS011;1158;48.750;9.078;2022-10-04T13:56:39;3.63;;;1.60;;
2299;SDS011;1158;48.750;9.078;2022-10-04T13:59:23;2.97;;;1.67;;
2299;SDS011;1158;48.750;9.078;2022-10-04T14:02:11;4.30;;;1.60;;
2299;SDS011;1158;48.750;9.078;2022-10-04T14:05:23;2.93;;;1.67;;
2299;SDS011;1158;48.750;9.078;2022-10-04T14:11:32;2.67;;;1.67;;
2299;SDS011;1158;48.750;9.078;2022-10-04T14:14:31;2.27;;;1.40;;
2299;SDS011;1158;48.750;9.078;2022-10-04T14:17:25;2.90;;;1.50;;
2299;SDS011;1158;48.750;9.078;2022-10-04T14:26:23;2.00;;;1.50;;
2299;SDS011;1158;48.750;9.078;2022-10-04T14:29:18;2.30;;;1.50;;
2299;SDS011;1158;48.750;9.078;2022-10-04T14:35:39;5.40;;;1.67;;
2299;SDS011;1158;48.750;9.078;2022-10-04T14:38:20;2.60;;;1.33;;
2299;SDS011;1158;48.750;9.078;2022-10-04T14:44:14;2.20;;;1.40;;
2299;SDS011;1158;48.750;9.078;2022-10-04T14:47:07;2.80;;;1.50;;
2299;SDS011;1158;48.750;9.078;2022-10-04T14:49:47;2.90;;;1.37;;
2299;SDS011;1158;48.750;9.078;2022-10-04T14:52:40;6.87;;;1.43;;
2299;SDS011;1158;48.750;9.078;2022-10-04T14:55:28;3.00;;;1.37;;
2299;SDS011;1158;48.750;9.078;2022-10-04T14:58:14;1.80;;;1.10;;
2299;SDS011;1158;48.750;9.078;2022-10-04T15:01:01;2.80;;;1.37;;
2299;SDS011;1158;48.750;9.078;2022-10-04T15:03:58;3.13;;;1.70;;
2299;SDS011;1158;48.750;9.078;2022-10-04T15:06:42;10.20;;;2.00;;
2299;SDS011;1158;48.750;9.078;2022-10-04T15:12:20;7.67;;;2.13;;
2299;SDS011;1158;48.750;9.078;2022-10-04T15:15:24;3.10;;;1.70;;
2299;SDS011;1158;48.750;9.078;2022-10-04T15:18:09;2.70;;;1.80;;
2299;SDS011;1158;48.750;9.078;2022-10-04T15:20:53;2.90;;;1.60;;
2299;SDS011;1158;48.750;9.078;2022-10-04T15:23:28;5.80;;;2.23;;
2299;SDS011;1158;48.750;9.078;2022-10-04T15:26:03;4.00;;;2.00;;
2299;SDS011;1158;48.750;9.078;2022-10-04T15:28:44;4.97;;;2.33;;
2299;SDS011;1158;48.750;9.078;2022-10-04T15:31:25;7.03;;;2.83;;
2299;SDS011;1158;48.750;9.078;2022-10-04T15:33:59;7.30;;;2.30;;
2299;SDS011;1158;48.750;9.078;2022-10-04T15:36:36;6.73;;;2.57;;
2299;SDS011;1158;48.750;9.078;2022-10-04T15:42:07;4.00;;;2.40;;
2299;SDS011;1158;48.750;9.078;2022-10-04T15:47:51;4.03;;;2.70;;
2299;SDS011;1158;48.750;9.078;2022-10-04T15:50:36;3.70;;;2.60;;
2299;SDS011;1158;48.750;9.078;2022-10-04T15:53:37;8.20;;;2.87;;
2299;SDS011;1158;48.750;9.078;2022-10-04T15:56:11;7.23;;;2.47;;
2299;SDS011;1158;48.750;9.078;2022-10-04T15:59:03;5.57;;;2.50;;
2299;SDS011;1158;48.750;9.078;2022-10-04T16:01:50;3.80;;;2.53;;
2299;SDS011;1158;48.750;9.078;2022-10-04T16:04:33;5.80;;;2.47;;
2299;SDS011;1158;48.750;9.078;2022-10-04T16:07:23;4.30;;;2.30;;
2299;SDS011;1158;48.750;9.078;2022-10-04T16:10:16;10.43;;;3.50;;
2299;SDS011;1158;48.750;9.078;2022-10-04T16:12:58;4.20;;;2.57;;
2299;SDS011;1158;48.750;9.078;2022-10-04T16:15:38;8.00;;;3.50;;
2299;SDS011;1158;48.750;9.078;2022-10-04T16:18:29;6.33;;;3.17;;
2299;SDS011;1158;48.750;9.078;2022-10-04T16:21:06;7.40;;;2.90;;
2299;SDS011;1158;48.750;9.078;2022-10-04T16:23:41;5.47;;;3.00;;
2299;SDS011;1158;48.750;9.078;2022-10-04T16:26:09;5.93;;;2.97;;
2299;SDS011;1158;48.750;9.078;2022-10-04T16:31:39;4.83;;;3.13;;
2299;SDS011;1158;48.750;9.078;2022-10-04T16:34:16;6.30;;;3.20;;
2299;SDS011;1158;48.750;9.078;2022-10-04T16:36:53;10.03;;;3.40;;
2299;SDS011;1158;48.750;9.078;2022-10-04T16:39:34;5.23;;;3.10;;
2299;SDS011;1158;48.750;9.078;2022-10-04T16:42:21;8.83;;;3.13;;
2299;SDS011;1158;48.750;9.078;2022-10-04T16:44:52;7.13;;;2.83;;
2299;SDS011;1158;48.750;9.078;2022-10-04T16:47:24;3.67;;;2.67;;
2299;SDS011;1158;48.750;9.078;2022-10-04T16:49:56;9.20;;;2.87;;
2299;SDS011;1158;48.750;9.078;2022-10-04T16:52:36;10.80;;;2.97;;
2299;SDS011;1158;48.750;9.078;2022-10-04T16:55:24;6.47;;;3.10;;
2299;SDS011;1158;48.750;9.078;2022-10-04T17:01:24;7.97;;;3.67;;
2299;SDS011;1158;48.750;9.078;2022-10-04T17:04:21;8.47;;;4.00;;
2299;SDS011;1158;48.750;9.078;2022-10-04T17:06:59;12.93;;;4.40;;
2299;SDS011;1158;48.750;9.078;2022-10-04T17:09:45;11.47;;;3.70;;
2299;SDS011;1158;48.750;9.078;2022-10-04T17:12:15;9.33;;;4.60;;
2299;SDS011;1158;48.750;9.078;2022-10-04T17:17:53;12.13;;;4.63;;
2299;SDS011;1158;48.750;9.078;2022-10-04T17:20:25;7.03;;;5.10;;
2299;SDS011;1158;48.750;9.078;2022-10-04T17:22:58;8.97;;;5.10;;
2299;SDS011;1158;48.750;9.078;2022-10-04T17:25:40;10.67;;;5.97;;
2299;SDS011;1158;48.750;9.078;2022-10-04T17:28:19;11.57;;;4.80;;
2299;SDS011;1158;48.750;9.078;2022-10-04T17:30:57;6.13;;;3.93;;
2299;SDS011;1158;48.750;9.078;2022-10-04T17:33:39;6.87;;;4.67;;
2299;SDS011;1158;48.750;9.078;2022-10-04T17:39:21;6.00;;;3.30;;
2299;SDS011;1158;48.750;9.078;2022-10-04T17:47:46;5.30;;;3.40;;
2299;SDS011;1158;48.750;9.078;2022-10-04T17:50:40;6.60;;;4.57;;
2299;SDS011;1158;48.750;9.078;2022-10-04T17:53:31;10.67;;;5.20;;
2299;SDS011;1158;48.750;9.078;2022-10-04T17:56:21;6.80;;;4.80;;
2299;SDS011;1158;48.750;9.078;2022-10-04T17:58:56;12.10;;;4.60;;
2299;SDS011;1158;48.750;9.078;2022-10-04T18:01:25;8.80;;;4.53;;
2299;SDS011;1158;48.750;9.078;2022-10-04T18:03:57;8.00;;;4.63;;
2299;SDS011;1158;48.750;9.078;2022-10-04T18:06:35;8.93;;;5.23;;
2299;SDS011;1158;48.750;9.078;2022-10-04T18:09:09;8.80;;;6.07;;
2299;SDS011;1158;48.750;9.078;2022-10-04T18:11:45;11.07;;;5.80;;
2299;SDS011;1158;48.750;9.078;2022-10-04T18:17:20;8.10;;;4.87;;
2299;SDS011;1158;48.750;9.078;2022-10-04T18:19:55;7.00;;;4.40;;
2299;SDS011;1158;48.750;9.078;2022-10-04T18:22:40;9.70;;;4.60;;
2299;SDS011;1158;48.750;9.078;2022-10-04T18:25:11;6.00;;;4.80;;
2299;SDS011;1158;48.750;9.078;2022-10-04T18:27:47;7.40;;;5.23;;
2299;SDS011;1158;48.750;9.078;2022-10-04T18:30:18;13.53;;;9.87;;
2299;SDS011;1158;48.750;9.078;2022-10-04T18:32:47;13.33;;;11.97;;
2299;SDS011;1158;48.750;9.078;2022-10-04T18:35:19;11.10;;;7.40;;
2299;SDS011;1158;48.750;9.078;2022-10-04T18:37:49;10.80;;;7.67;;
2299;SDS011;1158;48.750;9.078;2022-10-04T18:40:17;13.63;;;6.30;;
2299;SDS011;1158;48.750;9.078;2022-10-04T18:42:48;10.00;;;5.70;;
2299;SDS011;1158;48.750;9.078;2022-10-04T18:45:23;10.73;;;7.90;;
2299;SDS011;1158;48.750;9.078;2022-10-04T18:47:52;8.43;;;7.43;;